Time;durP1;ratioP1;P1;durP2;ratioP2;P2;SDS_P1;SDS_P2;PMS_P1;PMS_P2;Temp;Humidity;BMP_temperature;BMP_pressure;BME280_temperature;BME280_humidity;BME280_pressure;Samples;Min_cycle;Max_cycle;Signal;HPM_P1;HPM_P2
2023/10/31 00:01:04;;;;;;;0.10;0.10;;;;;;;13.11;58.01;101209.91;4969203;28;20411;-84
2023/10/31 00:03:31;;;;;;;0.10;0.10;;;;;;;13.11;57.95;101201.91;4969871;28;20390;-84
2023/10/31 00:05:57;;;;;;;0.10;0.10;;;;;;;13.11;58.12;101204.59;4969967;28;20862;-85
2023/10/31 00:08:24;;;;;;;0.28;0.28;;;;;;;13.13;58.00;101201.75;4970980;28;20890;-84
2023/10/31 00:10:49;;;;;;;0.20;0.20;;;;;;;13.17;57.84;101206.53;4955186;28;20461;-84
2023/10/31 00:13:15;;;;;;;0.13;0.13;;;;;;;13.20;57.69;101200.03;4970752;28;20383;-85
2023/10/31 00:15:41;;;;;;;0.20;0.20;;;;;;;13.14;57.87;101204.25;4976323;28;20552;-84
2023/10/31 00:18:06;;;;;;;0.40;0.40;;;;;;;13.11;58.54;101207.25;4976378;28;20403;-84
2023/10/31 00:20:32;;;;;;;0.13;0.13;;;;;;;13.02;58.65;101197.66;4992371;28;20411;-85
2023/10/31 00:22:58;;;;;;;0.32;0.32;;;;;;;13.11;58.83;101201.91;4977234;28;20396;-84
2023/10/31 00:25:23;;;;;;;0.20;0.20;;;;;;;13.22;58.43;101194.53;4993299;28;20415;-85
2023/10/31 00:27:49;;;;;;;0.30;0.30;;;;;;;13.18;58.48;101196.69;4991959;28;20430;-84
2023/10/31 00:30:14;;;;;;;0.40;0.40;;;;;;;13.00;59.36;101195.16;4971745;28;20387;-84
2023/10/31 00:32:40;;;;;;;0.20;0.20;;;;;;;12.84;60.24;101195.22;4955391;28;20399;-83
2023/10/31 00:35:06;;;;;;;0.40;0.40;;;;;;;12.66;60.61;101189.28;4971153;28;20463;-83
2023/10/31 00:37:31;;;;;;;0.40;0.40;;;;;;;12.73;60.24;101191.13;4955056;28;20426;-84
2023/10/31 00:39:57;;;;;;;0.10;0.10;;;;;;;12.86;59.70;101181.75;4954621;28;20407;-84
2023/10/31 00:42:22;;;;;;;0.20;0.20;;;;;;;12.97;59.57;101181.38;4970731;28;20396;-84
2023/10/31 00:44:48;;;;;;;0.10;0.10;;;;;;;13.01;59.34;101178.16;4970500;28;20399;-85
2023/10/31 00:47:15;;;;;;;0.20;0.20;;;;;;;12.96;59.25;101174.38;4969185;28;20415;-85
2023/10/31 00:49:41;;;;;;;0.13;0.13;;;;;;;12.94;59.63;101181.72;4952765;28;20491;-85
2023/10/31 00:52:06;;;;;;;0.63;0.63;;;;;;;12.92;59.67;101179.22;4953215;28;20470;-86
2023/10/31 00:54:32;;;;;;;0.10;0.10;;;;;;;13.06;59.25;101179.50;4952826;28;20449;-83
2023/10/31 00:56:57;;;;;;;0.10;0.10;;;;;;;13.01;58.91;101177.34;4953712;28;20407;-83
2023/10/31 00:59:23;;;;;;;0.40;0.40;;;;;;;13.08;58.85;101186.28;4956300;28;20434;-83
2023/10/31 01:01:50;;;;;;;0.10;0.10;;;;;;;13.11;58.44;101172.63;4973873;28;20489;-83
2023/10/31 01:04:15;;;;;;;0.10;0.10;;;;;;;13.14;58.21;101176.78;4971518;28;20783;-84
2023/10/31 01:06:42;;;;;;;0.10;0.10;;;;;;;13.18;58.04;101178.91;4970550;28;20759;-83
2023/10/31 01:09:11;;;;;;;0.10;0.10;;;;;;;13.23;58.10;101191.69;4954441;28;20396;-83
2023/10/31 01:11:36;;;;;;;0.30;0.30;;;;;;;13.20;57.86;101184.06;4970256;28;20399;-83
2023/10/31 01:14:03;;;;;;;0.20;0.20;;;;;;;13.18;57.98;101183.38;4953744;28;20392;-83
2023/10/31 01:16:29;;;;;;;0.10;0.10;;;;;;;13.19;57.69;101179.75;4956087;28;20409;-84
2023/10/31 01:18:54;;;;;;;0.20;0.20;;;;;;;13.22;57.60;101178.53;4973546;28;20751;-83
2023/10/31 01:21:20;;;;;;;0.10;0.10;;;;;;;13.15;57.50;101173.94;4979979;28;20455;-83
2023/10/31 01:23:45;;;;;;;0.10;0.10;;;;;;;13.18;57.26;101170.09;4959314;28;20387;-84
2023/10/31 01:26:11;;;;;;;0.65;0.65;;;;;;;13.17;57.12;101171.09;4957708;28;20403;-83
2023/10/31 01:28:36;;;;;;;0.10;0.10;;;;;;;13.08;57.46;101165.00;4957446;28;20391;-83
2023/10/31 01:31:06;;;;;;;0.20;0.20;;;;;;;13.03;57.46;101166.53;4957625;28;20395;-84
2023/10/31 01:33:31;;;;;;;0.10;0.10;;;;;;;12.85;58.00;101172.94;4973682;28;20920;-83
2023/10/31 01:35:57;;;;;;;0.50;0.50;;;;;;;12.67;58.59;101159.88;4973078;28;20399;-83
2023/10/31 01:38:23;;;;;;;0.20;0.20;;;;;;;12.53;59.08;101153.47;4957175;28;20395;-83
2023/10/31 01:40:50;;;;;;;0.20;0.20;;;;;;;12.54;59.19;101147.13;4973798;28;20450;-84
2023/10/31 01:43:35;;;;;;;0.30;0.30;;;;;;;12.66;58.52;101155.56;4974599;28;20388;-84
2023/10/31 01:46:01;;;;;;;0.20;0.20;;;;;;;12.78;58.31;101145.34;4957314;28;20956;-84
2023/10/31 01:48:29;;;;;;;0.10;0.10;;;;;;;12.88;57.80;101153.16;4957663;28;20423;-85
2023/10/31 01:51:04;;;;;;;0.10;0.10;;;;;;;12.86;57.32;101140.00;4956843;28;20387;-84
2023/10/31 01:53:32;;;;;;;0.20;0.20;;;;;;;12.86;57.67;101155.16;4956840;28;20426;-83
2023/10/31 01:56:01;;;;;;;0.10;0.10;;;;;;;12.89;57.42;101145.00;4974872;28;20882;-83
2023/10/31 01:58:37;;;;;;;0.40;0.40;;;;;;;12.94;57.23;101147.13;4974596;28;20384;-83
2023/10/31 02:01:05;;;;;;;0.15;0.15;;;;;;;12.91;57.26;101142.97;4956889;28;20407;-83
2023/10/31 02:03:31;;;;;;;0.20;0.20;;;;;;;12.88;57.31;101135.34;4956701;28;20767;-84
2023/10/31 02:05:57;;;;;;;0.10;0.10;;;;;;;12.93;57.34;101145.47;4956966;28;20411;-83
2023/10/31 02:08:25;;;;;;;0.10;0.10;;;;;;;12.94;57.23;101141.78;4957090;28;20391;-83
2023/10/31 02:10:50;;;;;;;0.10;0.10;;;;;;;12.98;57.15;101145.75;4972536;28;20379;-84
2023/10/31 02:13:18;;;;;;;0.10;0.10;;;;;;;12.99;57.06;101144.75;4973260;28;20502;-83
2023/10/31 02:15:44;;;;;;;0.20;0.20;;;;;;;12.95;57.15;101132.81;4957013;28;20494;-82
2023/10/31 02:18:12;;;;;;;0.30;0.30;;;;;;;12.99;57.24;101134.94;4972796;28;20898;-83
2023/10/31 02:20:38;;;;;;;0.17;0.17;;;;;;;13.01;56.95;101132.91;4956776;28;20407;-83
2023/10/31 02:23:04;;;;;;;0.30;0.30;;;;;;;13.04;57.22;101138.94;4957247;28;20407;-83
2023/10/31 02:25:30;;;;;;;0.10;0.10;;;;;;;12.99;57.11;101140.25;4956702;28;20435;-84
2023/10/31 02:27:56;;;;;;;0.10;0.10;;;;;;;12.99;57.14;101132.28;4956629;28;20398;-84
2023/10/31 02:30:21;;;;;;;0.20;0.20;;;;;;;13.04;57.31;101134.41;4956917;28;20391;-83
2023/10/31 02:32:47;;;;;;;0.10;0.10;;;;;;;13.05;57.23;101120.09;4974365;28;20407;-83
2023/10/31 02:35:15;;;;;;;0.10;0.10;;;;;;;12.94;57.23;101110.69;4967022;28;20426;-83
2023/10/31 02:37:41;;;;;;;0.10;0.10;;;;;;;12.92;57.40;101118.00;4992232;28;20464;-84
2023/10/31 02:40:07;;;;;;;0.57;0.57;;;;;;;12.79;57.79;101123.91;4976231;28;20417;-83
2023/10/31 02:42:33;;;;;;;0.32;0.32;;;;;;;12.79;57.91;101126.56;4976126;28;20460;-84
2023/10/31 02:44:59;;;;;;;0.10;0.10;;;;;;;12.90;57.61;101146.63;4960234;28;20397;-83
2023/10/31 02:47:24;;;;;;;0.20;0.20;;;;;;;12.82;57.69;101142.19;4975984;28;20396;-82
2023/10/31 02:49:50;;;;;;;0.22;0.22;;;;;;;12.82;57.75;101131.56;4975001;28;20484;-83
2023/10/31 02:52:15;;;;;;;0.20;0.20;;;;;;;12.86;57.39;101133.88;4975909;28;20390;-83
2023/10/31 02:54:41;;;;;;;0.30;0.30;;;;;;;12.77;57.65;101125.91;4991576;28;20410;-84
2023/10/31 02:57:07;;;;;;;0.10;0.10;;;;;;;12.68;57.88;101144.75;4991764;28;20425;-85
2023/10/31 02:59:33;;;;;;;0.20;0.20;;;;;;;12.59;57.81;101141.31;4974247;28;20398;-84
2023/10/31 03:01:58;;;;;;;0.25;0.25;;;;;;;12.50;57.72;101131.72;4974555;28;20404;-84
2023/10/31 03:04:24;;;;;;;0.30;0.30;;;;;;;12.19;58.48;101140.41;4973876;28;20394;-85
2023/10/31 03:06:50;;;;;;;0.20;0.20;;;;;;;12.19;58.57;101148.38;4991604;28;20782;-84
2023/10/31 03:09:17;;;;;;;0.35;0.35;;;;;;;12.28;58.29;101134.09;4974331;28;20481;-83
2023/10/31 03:11:43;;;;;;;0.22;0.22;;;;;;;12.37;57.92;101126.91;5004030;28;20428;-83
2023/10/31 03:14:08;;;;;;;0.10;0.10;;;;;;;12.42;57.80;101125.41;4977021;28;20452;-85
2023/10/31 03:16:36;;;;;;;0.10;0.10;;;;;;;12.47;57.62;101143.50;4974160;28;21039;-84
2023/10/31 03:19:01;;;;;;;0.10;0.10;;;;;;;12.47;57.39;101127.53;4974463;28;20893;-84
2023/10/31 03:21:27;;;;;;;0.10;0.10;;;;;;;12.46;57.61;101123.25;4973433;28;20433;-84
2023/10/31 03:23:55;;;;;;;0.10;0.10;;;;;;;12.49;57.32;101122.88;4973942;28;20404;-85
2023/10/31 03:26:21;;;;;;;0.40;0.30;;;;;;;12.48;57.07;101118.59;4973949;28;20402;-84
2023/10/31 03:28:47;;;;;;;0.20;0.20;;;;;;;12.49;57.04;101114.09;4973880;28;20405;-83
2023/10/31 03:31:14;;;;;;;0.10;0.10;;;;;;;12.48;57.24;101105.28;4975350;28;20455;-85
2023/10/31 03:33:41;;;;;;;0.20;0.20;;;;;;;12.49;56.94;101100.78;4976036;28;20393;-85
2023/10/31 03:36:08;;;;;;;0.20;0.20;;;;;;;12.49;57.01;101100.78;4957483;28;20556;-84
2023/10/31 03:38:34;;;;;;;0.10;0.10;;;;;;;12.41;56.86;101093.69;4958324;28;20751;-83
2023/10/31 03:41:01;;;;;;;0.20;0.20;;;;;;;12.39;57.09;101093.84;4990971;28;20417;-85
2023/10/31 03:43:26;;;;;;;0.10;0.10;;;;;;;12.39;57.08;101093.84;4958757;28;20386;-86
2023/10/31 03:45:52;;;;;;;0.10;0.10;;;;;;;12.41;56.96;101106.97;4974929;28;20381;-85
2023/10/31 03:48:18;;;;;;;0.10;0.10;;;;;;;12.33;57.04;101104.34;4975150;28;20390;-84
2023/10/31 03:50:43;;;;;;;0.20;0.20;;;;;;;12.33;57.29;101105.16;4974625;28;20473;-85
2023/10/31 03:53:09;;;;;;;2.10;1.77;;;;;;;12.10;57.92;101090.94;4985816;28;20428;-85
2023/10/31 03:55:34;;;;;;;0.33;0.33;;;;;;;11.98;58.46;101101.13;4981812;28;20448;-84
2023/10/31 03:58:00;;;;;;;0.20;0.20;;;;;;;11.99;58.40;101100.13;4974995;28;20389;-84
2023/10/31 04:00:26;;;;;;;1.40;0.80;;;;;;;11.93;58.72;101108.78;4974972;28;20413;-84
2023/10/31 04:02:52;;;;;;;0.40;0.40;;;;;;;11.97;58.48;101105.59;4974433;28;20401;-85
2023/10/31 04:05:18;;;;;;;0.10;0.10;;;;;;;12.04;58.31;101109.22;4974551;28;20400;-84
2023/10/31 04:07:46;;;;;;;0.20;0.20;;;;;;;11.91;58.49;101114.25;4991866;28;20789;-84
2023/10/31 04:10:12;;;;;;;0.65;0.50;;;;;;;11.86;58.36;101116.53;4974333;28;20386;-83
2023/10/31 04:12:39;;;;;;;2.20;1.30;;;;;;;11.67;59.26;101117.75;4974451;28;20405;-83
2023/10/31 04:15:05;;;;;;;0.22;0.22;;;;;;;11.71;59.08;101108.44;4974350;28;20383;-83
2023/10/31 04:17:31;;;;;;;0.25;0.25;;;;;;;11.74;58.60;101096.63;4974243;28;20386;-84
2023/10/31 04:19:56;;;;;;;0.20;0.20;;;;;;;11.77;58.53;101096.31;4973136;28;20487;-82
2023/10/31 04:22:22;;;;;;;0.20;0.20;;;;;;;11.50;58.87;101103.63;4974724;28;20413;-83
2023/10/31 04:24:48;;;;;;;0.10;0.10;;;;;;;11.38;59.51;101105.81;4975314;28;20964;-85
2023/10/31 04:27:13;;;;;;;1.10;1.10;;;;;;;11.32;59.69;101119.72;4974441;28;20401;-85
2023/10/31 04:29:39;;;;;;;0.20;0.20;;;;;;;11.26;59.57;101115.09;4991863;28;20452;-85
2023/10/31 04:32:05;;;;;;;1.85;1.25;;;;;;;11.09;60.34;101128.34;4974947;28;20829;-85
2023/10/31 04:34:30;;;;;;;0.35;0.35;;;;;;;10.91;60.06;101138.22;4974154;28;20390;-85
2023/10/31 04:36:56;;;;;;;0.20;0.20;;;;;;;10.86;59.92;101135.25;4968971;28;20411;-86
2023/10/31 04:39:21;;;;;;;0.20;0.20;;;;;;;10.77;59.96;101133.53;4971465;28;20407;-86
2023/10/31 04:41:47;;;;;;;0.15;0.15;;;;;;;10.83;60.31;101133.72;4971517;28;20383;-87
2023/10/31 04:44:13;;;;;;;0.50;0.50;;;;;;;10.96;59.60;101127.13;4970646;28;20491;-85
2023/10/31 04:46:39;;;;;;;0.10;0.10;;;;;;;11.02;59.40;101142.38;4960991;28;20793;-86
2023/10/31 04:49:05;;;;;;;0.22;0.22;;;;;;;11.04;59.12;101137.78;4954976;28;20402;-87
2023/10/31 04:51:34;;;;;;;0.15;0.15;;;;;;;11.00;59.22;101139.06;4954052;28;20763;-86
2023/10/31 04:54:00;;;;;;;0.30;0.30;;;;;;;10.85;59.48;101157.44;4954449;28;20423;-87
2023/10/31 04:56:26;;;;;;;0.90;0.30;;;;;;;10.63;60.45;101154.38;4961703;28;20408;-85
2023/10/31 04:58:51;;;;;;;0.70;0.70;;;;;;;10.46;60.65;101149.97;4973963;28;20398;-85
2023/10/31 05:01:19;;;;;;;0.27;0.27;;;;;;;10.27;61.30;101149.19;4957339;28;22165;-85
2023/10/31 05:03:45;;;;;;;3.30;0.33;;;;;;;10.51;60.90;101135.28;4973903;28;20397;-86
2023/10/31 05:06:11;;;;;;;0.17;0.17;;;;;;;10.75;60.49;101125.75;4973761;28;20394;-86
2023/10/31 05:08:37;;;;;;;0.10;0.10;;;;;;;10.88;59.72;101128.78;4973591;28;20476;-85
2023/10/31 05:11:02;;;;;;;0.20;0.20;;;;;;;11.00;59.32;101124.00;4973762;28;20390;-86
2023/10/31 05:13:28;;;;;;;0.10;0.10;;;;;;;11.05;58.89;101107.59;4974444;28;20465;-86
2023/10/31 05:15:54;;;;;;;0.63;0.45;;;;;;;11.04;59.36;101116.56;4973572;28;20402;-85
2023/10/31 05:18:20;;;;;;;0.10;0.10;;;;;;;11.15;58.98;101120.72;4974116;28;20883;-86
2023/10/31 05:20:45;;;;;;;0.10;0.10;;;;;;;11.24;59.00;101117.91;4993560;28;20402;-85
2023/10/31 05:23:12;;;;;;;0.10;0.10;;;;;;;11.25;58.50;101110.75;4978451;28;20394;-85
2023/10/31 05:25:38;;;;;;;0.10;0.10;;;;;;;11.22;58.75;101113.75;4974359;28;20644;-87
2023/10/31 05:28:04;;;;;;;0.40;0.40;;;;;;;11.16;58.77;101117.06;4973986;28;20473;-87
2023/10/31 05:30:30;;;;;;;0.20;0.20;;;;;;;11.17;59.20;101122.19;4974891;28;20472;-86
2023/10/31 05:32:56;;;;;;;0.10;0.10;;;;;;;11.19;58.98;101120.22;4974159;28;20401;-85
2023/10/31 05:35:22;;;;;;;0.20;0.20;;;;;;;11.17;58.70;101113.41;4974300;28;20397;-85
2023/10/31 05:37:50;;;;;;;0.90;0.90;;;;;;;11.23;58.81;101116.22;4974177;28;20413;-86
2023/10/31 05:40:16;;;;;;;0.30;0.30;;;;;;;11.16;58.70;101111.75;4991273;28;20409;-84
2023/10/31 05:42:45;;;;;;;0.10;0.10;;;;;;;11.09;59.35;101109.75;4975902;28;20436;-84
2023/10/31 05:45:15;;;;;;;0.20;0.20;;;;;;;11.08;59.24;101091.34;4974818;28;20964;-84
2023/10/31 05:47:46;;;;;;;0.30;0.30;;;;;;;10.97;59.39;101100.44;4973016;28;20389;-84
2023/10/31 05:50:12;;;;;;;0.45;0.45;;;;;;;10.84;60.20;101108.03;4988309;28;20410;-84
2023/10/31 05:52:38;;;;;;;0.20;0.20;;;;;;;10.95;59.80;101098.94;4971729;28;20412;-85
2023/10/31 05:55:07;;;;;;;0.20;0.20;;;;;;;11.00;59.55;101099.28;4972781;28;21048;-84
2023/10/31 05:57:40;;;;;;;0.20;0.20;;;;;;;10.93;59.98;101096.47;4971578;28;20567;-84
2023/10/31 06:00:11;;;;;;;0.60;0.60;;;;;;;10.94;59.89;101098.13;4949450;29;20503;-85
2023/10/31 06:02:37;;;;;;;0.67;0.43;;;;;;;10.89;60.51;101095.13;4950001;28;20396;-85
2023/10/31 06:05:03;;;;;;;0.10;0.10;;;;;;;10.93;60.23;101112.38;4938264;29;20405;-85
2023/10/31 06:07:30;;;;;;;0.70;0.50;;;;;;;11.04;60.57;101117.38;4937909;29;20395;-85
2023/10/31 06:09:58;;;;;;;0.10;0.10;;;;;;;11.12;60.24;101111.25;4954394;29;20484;-86
2023/10/31 06:12:32;;;;;;;0.13;0.13;;;;;;;11.20;60.46;101107.75;4935374;29;20475;-86
2023/10/31 06:14:57;;;;;;;0.40;0.40;;;;;;;11.29;59.99;101128.84;4920097;29;20387;-84
2023/10/31 06:17:26;;;;;;;0.30;0.30;;;;;;;11.36;60.31;101129.03;4919956;29;20538;-85
2023/10/31 06:19:51;;;;;;;0.20;0.20;;;;;;;11.48;60.56;101126.88;4918367;29;20410;-86
2023/10/31 06:22:17;;;;;;;0.23;0.23;;;;;;;11.64;60.11;101113.59;4919889;29;20410;-85
2023/10/31 06:24:43;;;;;;;0.20;0.20;;;;;;;11.71;60.10;101118.25;4933725;29;20425;-88
2023/10/31 06:27:08;;;;;;;0.20;0.20;;;;;;;11.79;60.54;101118.22;4917030;29;20405;-85
2023/10/31 06:29:35;;;;;;;0.17;0.17;;;;;;;11.85;60.30;101107.75;4916438;29;20788;-85
2023/10/31 06:32:01;;;;;;;0.50;0.40;;;;;;;11.89;60.56;101121.53;4932779;29;20399;-85
2023/10/31 06:34:26;;;;;;;0.20;0.20;;;;;;;11.86;60.93;101113.88;4935746;29;20403;-86
2023/10/31 06:36:52;;;;;;;0.30;0.30;;;;;;;11.97;61.20;101112.75;4934556;29;20454;-87
2023/10/31 06:39:19;;;;;;;0.40;0.40;;;;;;;11.95;61.18;101115.56;4940298;29;20403;-86
2023/10/31 06:41:44;;;;;;;0.20;0.20;;;;;;;11.93;61.71;101122.88;4951962;29;20418;-86
2023/10/31 06:44:10;;;;;;;0.10;0.10;;;;;;;11.99;61.83;101137.31;4938246;29;20395;-84
2023/10/31 06:46:41;;;;;;;0.20;0.20;;;;;;;12.15;61.54;101129.28;4935605;29;20866;-85
2023/10/31 06:49:09;;;;;;;0.20;0.20;;;;;;;12.15;61.31;101129.28;4937299;29;20489;-86
2023/10/31 06:51:35;;;;;;;0.40;0.40;;;;;;;12.05;61.52;101121.53;4948525;29;20443;-86
2023/10/31 06:54:07;;;;;;;0.30;0.30;;;;;;;11.96;61.64;101132.34;4921322;29;20506;-85
2023/10/31 06:56:35;;;;;;;0.20;0.20;;;;;;;12.07;61.64;101134.66;4935478;29;20858;-84
2023/10/31 06:59:01;;;;;;;0.40;0.40;;;;;;;11.89;61.90;101142.78;4973795;28;20397;-86
2023/10/31 07:01:29;;;;;;;0.32;0.32;;;;;;;11.74;62.78;101142.63;4980731;28;20410;-88
2023/10/31 07:03:56;;;;;;;0.40;0.40;;;;;;;11.82;62.41;101131.16;4981084;28;20429;-86
2023/10/31 07:06:22;;;;;;;0.30;0.30;;;;;;;12.01;62.50;101127.34;4978610;28;20492;-85
2023/10/31 07:08:50;;;;;;;0.37;0.37;;;;;;;12.09;61.96;101132.66;4995574;28;20412;-86
2023/10/31 07:11:16;;;;;;;0.20;0.20;;;;;;;12.28;61.94;101127.94;4979955;28;20389;-86
2023/10/31 07:13:43;;;;;;;0.20;0.20;;;;;;;12.42;61.52;101135.19;4978067;28;20501;-88
2023/10/31 07:16:12;;;;;;;0.30;0.30;;;;;;;12.49;61.59;101136.19;4977624;28;20776;-85
2023/10/31 07:18:40;;;;;;;0.40;0.40;;;;;;;12.49;61.71;101120.22;4977556;28;20457;-85
2023/10/31 07:21:07;;;;;;;0.40;0.40;;;;;;;12.69;61.57;101125.94;4977332;28;20908;-85
2023/10/31 07:23:35;;;;;;;0.50;0.50;;;;;;;12.69;61.65;101123.28;4979293;28;20386;-88
2023/10/31 07:26:09;;;;;;;2.60;2.40;;;;;;;12.81;61.74;101119.25;4997906;28;20388;-86
2023/10/31 07:28:38;;;;;;;0.30;0.30;;;;;;;12.93;61.43;101113.53;4976463;28;20426;-86
2023/10/31 07:31:07;;;;;;;0.45;0.45;;;;;;;13.06;61.23;101115.63;4978499;28;20777;-86
2023/10/31 07:33:40;;;;;;;0.55;0.47;;;;;;;13.27;61.17;101110.47;4993702;28;20398;-87
2023/10/31 07:36:06;;;;;;;0.30;0.30;;;;;;;13.52;60.60;101113.81;4977899;28;20394;-85
2023/10/31 07:38:31;;;;;;;0.50;0.50;;;;;;;13.52;60.54;101123.63;4977606;28;20424;-85
2023/10/31 07:40:57;;;;;;;0.32;0.32;;;;;;;13.62;60.76;101124.19;4976435;28;20433;-84
2023/10/31 07:43:22;;;;;;;0.10;0.10;;;;;;;13.77;60.61;101113.56;4976484;28;20880;-86
2023/10/31 07:45:48;;;;;;;0.20;0.20;;;;;;;13.89;60.44;101105.97;4976269;28;20392;-85
2023/10/31 07:48:13;;;;;;;0.50;0.40;;;;;;;13.87;60.69;101111.47;4976063;28;20920;-84
2023/10/31 07:50:40;;;;;;;0.93;0.83;;;;;;;13.94;60.85;101101.75;4975495;28;20393;-83
2023/10/31 07:53:08;;;;;;;0.40;0.40;;;;;;;14.09;60.30;101107.06;4974707;28;20418;-84
2023/10/31 07:55:40;;;;;;;1.10;1.10;;;;;;;14.17;60.45;101108.00;4975485;28;20765;-84
2023/10/31 07:58:09;;;;;;;0.20;0.20;;;;;;;14.31;60.52;101092.00;4975620;28;20412;-83
2023/10/31 08:00:43;;;;;;;0.28;0.28;;;;;;;14.42;60.00;101096.06;4974616;28;20566;-83
2023/10/31 08:03:09;;;;;;;0.50;0.50;;;;;;;14.49;59.63;101088.09;4974628;28;20484;-84
2023/10/31 08:05:42;;;;;;;0.50;0.50;;;;;;;14.53;59.57;101081.38;4992644;28;20672;-84
2023/10/31 08:08:20;;;;;;;0.45;0.45;;;;;;;14.61;59.45;101072.50;4975190;28;20398;-84
2023/10/31 08:10:47;;;;;;;0.15;0.15;;;;;;;14.83;59.42;101078.69;4975091;28;20861;-85
2023/10/31 08:13:15;;;;;;;0.50;0.40;;;;;;;14.70;59.21;101066.03;4974180;28;20404;-86
2023/10/31 08:15:43;;;;;;;0.20;0.20;;;;;;;14.77;59.09;101074.94;4977407;28;20475;-86
2023/10/31 08:18:09;;;;;;;0.63;0.63;;;;;;;14.98;59.11;101068.78;4975387;28;20390;-86
2023/10/31 08:20:43;;;;;;;0.33;0.20;;;;;;;15.03;58.62;101053.00;4993139;28;20492;-86
2023/10/31 08:23:09;;;;;;;0.17;0.17;;;;;;;15.21;58.30;101059.75;4977052;28;20420;-85
2023/10/31 08:25:36;;;;;;;0.20;0.20;;;;;;;15.34;57.94;101062.53;4959352;28;20509;-84
2023/10/31 08:28:05;;;;;;;0.68;0.38;;;;;;;15.47;57.61;101056.47;4977460;28;20401;-87
2023/10/31 08:30:31;;;;;;;0.90;0.90;;;;;;;15.53;57.72;101041.50;4991948;28;20398;-83
2023/10/31 08:35:54;;;;;;;0.50;0.50;;;;;;;15.58;56.33;101045.25;4971156;28;20400;-86
2023/10/31 08:38:29;;;;;;;0.40;0.40;;;;;;;15.65;56.04;101050.66;4976640;28;20396;-86
2023/10/31 08:40:56;;;;;;;0.47;0.47;;;;;;;15.76;55.97;101031.41;4976006;28;20416;-86
2023/10/31 08:43:24;;;;;;;0.47;0.47;;;;;;;15.80;55.73;101027.31;4960515;28;20401;-86
2023/10/31 08:45:50;;;;;;;1.40;0.60;;;;;;;15.89;55.53;101022.66;4976621;28;20394;-86
2023/10/31 08:48:18;;;;;;;1.00;0.70;;;;;;;15.94;55.53;101036.25;4977909;28;20424;-87
2023/10/31 08:50:51;;;;;;;0.90;0.90;;;;;;;16.00;55.17;101027.44;4976274;28;20888;-87
2023/10/31 08:53:21;;;;;;;1.00;0.60;;;;;;;16.09;55.58;101025.41;4975200;28;20934;-85
2023/10/31 08:55:49;;;;;;;0.55;0.55;;;;;;;16.26;55.27;101009.88;4976481;28;20473;-87
2023/10/31 08:58:20;;;;;;;0.60;0.60;;;;;;;16.39;54.90;101006.41;4975741;28;20385;-86
2023/10/31 09:00:48;;;;;;;0.20;0.20;;;;;;;16.53;54.83;101004.56;4975198;28;21020;-86
2023/10/31 09:03:19;;;;;;;0.20;0.20;;;;;;;16.62;54.94;100998.03;4975129;28;20457;-86
2023/10/31 09:05:47;;;;;;;0.13;0.13;;;;;;;16.67;54.67;100994.72;4976605;28;20382;-87
2023/10/31 09:08:13;;;;;;;0.77;0.55;;;;;;;16.68;54.49;100980.34;4976331;28;20896;-87
2023/10/31 09:10:46;;;;;;;0.30;0.30;;;;;;;16.85;54.47;100989.63;4975578;28;20406;-88
2023/10/31 09:13:12;;;;;;;0.70;0.50;;;;;;;16.96;54.77;100975.66;4977553;28;20816;-87
2023/10/31 09:15:41;;;;;;;0.50;0.50;;;;;;;17.06;54.20;100983.25;4975451;28;20468;-89
2023/10/31 09:18:06;;;;;;;0.60;0.60;;;;;;;17.08;54.39;100978.53;5084247;23;20432;-86
2023/10/31 09:20:58;;;;;;;0.20;0.20;;;;;;;17.23;54.10;100978.28;4998838;28;20433;-89
2023/10/31 09:23:27;;;;;;;0.70;0.70;;;;;;;17.33;53.63;100969.84;4975272;28;20407;-88
2023/10/31 09:25:52;;;;;;;0.20;0.20;;;;;;;17.33;53.64;100959.94;4972557;28;20406;-88
2023/10/31 09:28:18;;;;;;;0.38;0.38;;;;;;;17.34;54.09;100950.03;4977412;28;20395;-88
2023/10/31 09:30:45;;;;;;;0.20;0.20;;;;;;;17.44;53.97;100952.31;4985762;28;20848;-89
2023/10/31 09:33:10;;;;;;;0.15;0.15;;;;;;;17.52;53.84;100952.91;4973226;28;20399;-88
2023/10/31 09:35:42;;;;;;;0.30;0.30;;;;;;;17.59;53.97;100944.84;4973952;28;20388;-89
2023/10/31 09:38:08;;;;;;;0.45;0.35;;;;;;;17.70;53.77;100948.72;4988896;28;20501;-88
2023/10/31 09:40:33;;;;;;;0.40;0.40;;;;;;;17.82;53.74;100933.63;4984192;28;20462;-89
2023/10/31 09:43:55;;;;;;;;;;;;;;;;;;;;;
2023/10/31 09:53:57;;;;;;;0.60;0.30;;;;;;;18.12;53.68;100892.88;4982097;28;20398;-90
2023/10/31 09:56:48;;;;;;;0.10;0.10;;;;;;;18.23;53.26;100894.06;4989117;28;20388;-91
2023/10/31 09:59:15;;;;;;;0.30;0.30;;;;;;;18.26;52.53;100875.66;4985826;28;20920;-87
2023/10/31 10:01:41;;;;;;;0.70;0.70;;;;;;;18.42;52.36;100873.47;4992910;28;20412;-88
2023/10/31 10:04:10;;;;;;;0.17;0.17;;;;;;;18.38;52.68;100853.47;5012609;28;20416;-88
2023/10/31 10:06:40;;;;;;;1.83;0.63;;;;;;;18.44;52.01;100848.06;5018398;28;20461;-87
2023/10/31 10:09:08;;;;;;;0.17;0.17;;;;;;;18.65;51.97;100846.84;5026301;28;20391;-88
2023/10/31 10:11:35;;;;;;;1.00;1.00;;;;;;;18.67;52.28;100836.72;5034722;28;20391;-89
2023/10/31 10:14:00;;;;;;;0.17;0.17;;;;;;;18.53;52.08;100814.53;5024005;28;20468;-88
2023/10/31 10:16:33;;;;;;;0.20;0.20;;;;;;;18.67;51.77;100814.41;5009302;28;20388;-89
2023/10/31 10:19:25;;;;;;;0.50;0.35;;;;;;;18.61;50.73;100804.56;4998141;28;20437;-87
2023/10/31 10:21:59;;;;;;;0.20;0.20;;;;;;;18.68;50.86;100792.69;4988655;28;20409;-91
2023/10/31 10:24:31;;;;;;;0.20;0.20;;;;;;;18.80;50.40;100800.84;4995521;28;20405;-88
2023/10/31 10:26:57;;;;;;;0.30;0.30;;;;;;;18.95;50.48;100799.72;4997374;28;20518;-87
2023/10/31 10:29:27;;;;;;;0.10;0.10;;;;;;;19.09;50.42;100793.94;5005940;28;20494;-86
2023/10/31 10:32:22;;;;;;;;;;;;;;;;;;;;;
2023/10/31 10:34:55;;;;;;;0.28;0.28;;;;;;;19.14;50.18;100781.69;5001073;28;20410;-87
2023/10/31 10:37:41;;;;;;;0.10;0.10;;;;;;;19.14;49.75;100763.72;4987778;28;20405;-86
2023/10/31 10:40:10;;;;;;;0.20;0.20;;;;;;;19.24;49.78;100766.69;4980447;28;20915;-87
2023/10/31 10:43:04;;;;;;;0.32;0.32;;;;;;;19.29;50.02;100756.09;4997964;28;20394;-85
2023/10/31 10:45:31;;;;;;;0.20;0.20;;;;;;;19.31;49.80;100747.00;4976076;28;20452;-87
2023/10/31 10:48:04;;;;;;;0.45;0.45;;;;;;;19.38;49.68;100734.28;4997393;28;20400;-88
2023/10/31 10:50:35;;;;;;;0.50;0.50;;;;;;;19.48;49.64;100730.00;4984019;28;20405;-86
2023/10/31 10:53:49;;;;;;;0.30;0.30;;;;;;;19.63;49.65;100742.19;4999921;28;20390;-87
2023/10/31 10:56:43;;;;;;;;;;;;;;;;;;;;;
2023/10/31 10:59:32;;;;;;;0.13;0.13;;;;;;;19.72;49.48;100727.38;4958089;29;20840;-87
2023/10/31 11:02:36;;;;;;;0.20;0.20;;;;;;;19.73;48.97;100707.50;4939441;29;20436;-87
2023/10/31 11:05:13;;;;;;;0.20;0.20;;;;;;;19.85;49.11;100708.34;4987220;28;20392;-88
2023/10/31 11:07:48;;;;;;;0.50;0.40;;;;;;;19.99;48.67;100708.97;4971011;28;20412;-87
2023/10/31 11:10:15;;;;;;;0.20;0.20;;;;;;;20.05;48.46;100694.56;4999368;28;20885;-88
2023/10/31 11:12:46;;;;;;;0.35;0.35;;;;;;;20.11;48.42;100698.19;5000328;28;20392;-88
2023/10/31 11:15:16;;;;;;;0.60;0.60;;;;;;;20.15;48.25;100701.22;4994550;28;21071;-90
2023/10/31 11:17:47;;;;;;;0.25;0.20;;;;;;;20.14;48.25;100703.13;4972475;28;20422;-88
2023/10/31 11:20:17;;;;;;;0.50;0.50;;;;;;;20.12;48.27;100702.53;4968710;28;20403;-92
2023/10/31 11:22:45;;;;;;;0.10;0.10;;;;;;;20.23;48.26;100688.25;4977124;28;20415;-90
2023/10/31 11:25:19;;;;;;;0.20;0.20;;;;;;;20.28;48.05;100694.81;4985145;28;20426;-91
2023/10/31 11:28:02;;;;;;;2.08;1.10;;;;;;;20.42;48.21;100697.03;4987335;28;20410;-92
2023/10/31 11:30:30;;;;;;;0.10;0.10;;;;;;;20.29;48.43;100686.47;4981375;28;20415;-91
2023/10/31 11:33:01;;;;;;;0.20;0.20;;;;;;;20.30;48.18;100688.13;4984454;28;20419;-88
2023/10/31 11:35:29;;;;;;;0.50;0.50;;;;;;;20.28;48.51;100676.78;4994432;28;20478;-87
2023/10/31 11:38:08;;;;;;;0.10;0.10;;;;;;;20.41;48.68;100673.84;4974255;28;20505;-89
2023/10/31 11:40:49;;;;;;;0.30;0.30;;;;;;;20.47;48.47;100674.75;4959001;28;21008;-88
2023/10/31 11:43:18;;;;;;;0.10;0.10;;;;;;;20.54;48.24;100671.94;4956705;28;20427;-90
2023/10/31 11:45:48;;;;;;;0.30;0.30;;;;;;;20.56;48.49;100675.22;5003478;28;20457;-88